Time;durP1;ratioP1;P1;durP2;ratioP2;P2;SDS_P1;SDS_P2;PMS_P1;PMS_P2;Temp;Humidity;BMP_temperature;BMP_pressure;BME280_temperature;BME280_humidity;BME280_pressure;Samples;Min_cycle;Max_cycle;Signal;HPM_P1;HPM_P2
2023/12/14 00:01:16;;;;;;;21.90;9.10;;;;;;;-6.06;100.00;100896.08;106209;1251;60533;-60
2023/12/14 00:03:44;;;;;;;20.70;9.30;;;;;;;-6.05;100.00;100895.70;105939;1253;74381;-54
2023/12/14 00:06:11;;;;;;;27.30;11.40;;;;;;;-6.03;100.00;100895.27;106050;1250;65696;-55
2023/12/14 00:08:38;;;;;;;24.60;10.50;;;;;;;-6.04;100.00;100897.68;105988;1253;71701;-54
2023/12/14 00:11:06;;;;;;;22.20;9.50;;;;;;;-6.04;100.00;100894.81;105931;1253;61724;-54
2023/12/14 00:13:33;;;;;;;20.90;9.30;;;;;;;-6.05;100.00;100893.83;106148;1251;60502;-61
2023/12/14 00:16:00;;;;;;;22.20;8.90;;;;;;;-6.04;100.00;100895.15;105690;1251;74083;-54
2023/12/14 00:18:27;;;;;;;28.00;10.10;;;;;;;-6.05;100.00;100895.70;106137;1251;65704;-54
2023/12/14 00:20:55;;;;;;;28.80;9.70;;;;;;;-6.03;100.00;100901.70;106060;1249;72535;-55
2023/12/14 00:23:22;;;;;;;30.40;10.20;;;;;;;-6.04;100.00;100903.92;105736;1251;61772;-61
2023/12/14 00:25:49;;;;;;;24.50;10.20;;;;;;;-6.06;100.00;100901.65;105943;1251;60428;-54
2023/12/14 00:28:16;;;;;;;29.00;10.10;;;;;;;-6.06;100.00;100894.55;105790;1250;73608;-54
2023/12/14 00:30:43;;;;;;;24.90;10.20;;;;;;;-6.07;100.00;100887.65;106008;1251;67058;-55
2023/12/14 00:33:10;;;;;;;33.80;13.50;;;;;;;-6.10;100.00;100883.04;105938;1252;72627;-55
2023/12/14 00:35:37;;;;;;;29.30;10.40;;;;;;;-6.12;100.00;100874.45;105889;1250;60696;-57
2023/12/14 00:38:04;;;;;;;29.90;11.70;;;;;;;-6.13;100.00;100870.45;105553;1253;60893;-56
2023/12/14 00:40:31;;;;;;;29.60;10.90;;;;;;;-6.14;100.00;100873.02;106407;1250;73964;-54
2023/12/14 00:42:58;;;;;;;23.80;10.70;;;;;;;-6.14;100.00;100866.92;106115;1249;67039;-55
2023/12/14 00:45:25;;;;;;;31.80;11.90;;;;;;;-6.15;100.00;100869.34;105945;1251;72705;-55
2023/12/14 00:47:52;;;;;;;24.20;10.80;;;;;;;-6.16;100.00;100867.84;105986;1251;61079;-61
2023/12/14 00:50:19;;;;;;;24.20;10.00;;;;;;;-6.17;100.00;100861.66;105991;1250;60303;-55
2023/12/14 00:52:46;;;;;;;37.50;11.00;;;;;;;-6.18;100.00;100854.25;105878;1253;72770;-54
2023/12/14 00:55:13;;;;;;;34.70;11.50;;;;;;;-6.21;100.00;100853.86;105909;1251;66835;-54
2023/12/14 00:57:40;;;;;;;28.40;11.90;;;;;;;-6.20;100.00;100855.19;105905;1253;71484;-55
2023/12/14 01:00:10;;;;;;;31.30;10.30;;;;;;;-6.21;100.00;100858.59;106353;1251;62562;-57
2023/12/14 01:02:37;;;;;;;37.00;12.10;;;;;;;-6.23;100.00;100857.46;106196;1253;60415;-54
2023/12/14 01:05:04;;;;;;;25.30;10.30;;;;;;;-6.21;100.00;100857.09;105907;1250;73970;-55
2023/12/14 01:07:32;;;;;;;27.90;10.30;;;;;;;-6.22;100.00;100848.98;105984;1253;65991;-55
2023/12/14 01:09:58;;;;;;;24.80;8.50;;;;;;;-6.22;100.00;100841.71;106394;1251;72661;-54
2023/12/14 01:12:25;;;;;;;27.40;10.30;;;;;;;-6.22;100.00;100831.56;106119;1253;61797;-58
2023/12/14 01:14:52;;;;;;;25.00;7.40;;;;;;;-6.23;100.00;100818.74;105991;1253;60424;-54
2023/12/14 01:17:19;;;;;;;29.70;9.60;;;;;;;-6.25;100.00;100816.98;105952;1251;73844;-55
2023/12/14 01:19:46;;;;;;;31.80;11.20;;;;;;;-6.26;100.00;100813.79;106375;1253;67121;-56
2023/12/14 01:22:13;;;;;;;33.80;8.50;;;;;;;-6.28;100.00;100813.06;105885;1253;72474;-54
2023/12/14 01:24:42;;;;;;;32.30;10.00;;;;;;;-6.31;100.00;100820.26;105944;1251;61787;-55
2023/12/14 01:27:10;;;;;;;32.80;12.20;;;;;;;-6.33;100.00;100815.60;106209;1253;60565;-55
2023/12/14 01:29:37;;;;;;;24.50;9.00;;;;;;;-6.29;100.00;100810.39;106496;1251;73982;-56
2023/12/14 01:32:05;;;;;;;34.60;8.60;;;;;;;-6.28;100.00;100805.77;106213;1253;65730;-54
2023/12/14 01:34:32;;;;;;;34.30;8.80;;;;;;;-6.29;100.00;100811.55;106056;1250;71404;-54
2023/12/14 01:36:59;;;;;;;21.20;7.90;;;;;;;-6.26;100.00;100814.64;105854;1251;62428;-55
2023/12/14 01:39:26;;;;;;;24.60;8.30;;;;;;;-6.24;100.00;100818.63;105929;1251;60436;-54
2023/12/14 01:41:53;;;;;;;26.30;8.00;;;;;;;-6.24;100.00;100814.77;105918;1250;72428;-54
2023/12/14 01:44:20;;;;;;;30.20;8.40;;;;;;;-6.22;100.00;100816.53;105900;1250;67003;-54
2023/12/14 01:46:46;;;;;;;22.50;7.00;;;;;;;-6.21;100.00;100817.14;106158;1251;72656;-55
2023/12/14 01:49:13;;;;;;;21.20;7.50;;;;;;;-6.21;100.00;100812.75;106060;1250;62372;-54
2023/12/14 01:51:40;;;;;;;27.20;8.50;;;;;;;-6.20;100.00;100822.34;106221;1251;60526;-55
2023/12/14 01:54:07;;;;;;;25.10;8.10;;;;;;;-6.17;100.00;100818.17;106152;1253;73911;-55
2023/12/14 01:56:34;;;;;;;22.80;7.40;;;;;;;-6.16;100.00;100817.79;106406;1250;66205;-55
2023/12/14 01:59:01;;;;;;;28.60;8.10;;;;;;;-6.14;100.00;100815.66;105972;1251;72699;-55
2023/12/14 02:01:36;;;;;;;19.80;6.40;;;;;;;-6.14;100.00;100815.34;106374;1251;61747;-55
2023/12/14 02:04:03;;;;;;;32.40;6.80;;;;;;;-6.14;100.00;100820.59;105824;1253;60613;-55
2023/12/14 02:06:30;;;;;;;22.40;7.00;;;;;;;-6.15;100.00;100826.05;105923;1250;72362;-55
2023/12/14 02:08:57;;;;;;;19.80;8.00;;;;;;;-6.17;100.00;100824.75;106269;1253;65891;-61
2023/12/14 02:11:24;;;;;;;18.30;6.70;;;;;;;-6.17;100.00;100822.59;106554;1250;73167;-54
2023/12/14 02:13:50;;;;;;;19.20;5.90;;;;;;;-6.20;100.00;100819.83;106130;1250;62161;-56
2023/12/14 02:16:17;;;;;;;24.10;6.70;;;;;;;-6.23;100.00;100815.18;105896;1250;60450;-55
2023/12/14 02:18:45;;;;;;;20.80;7.40;;;;;;;-6.21;100.00;100815.48;105906;1250;72544;-55
2023/12/14 02:21:12;;;;;;;19.60;7.40;;;;;;;-6.18;100.00;100821.77;106090;1251;67261;-58
2023/12/14 02:23:44;;;;;;;19.20;7.00;;;;;;;-6.17;100.00;100827.98;105655;1251;72506;-55
2023/12/14 02:26:14;;;;;;;25.50;7.80;;;;;;;-6.16;100.00;100824.23;105928;1250;61797;-55
2023/12/14 02:28:41;;;;;;;17.60;7.20;;;;;;;-6.14;100.00;100817.88;105828;1251;60399;-57
2023/12/14 02:31:08;;;;;;;20.50;7.00;;;;;;;-6.16;100.00;100814.90;106277;1250;72527;-60
2023/12/14 02:33:35;;;;;;;21.50;7.40;;;;;;;-6.15;100.00;100814.85;106007;1250;67856;-54
2023/12/14 02:36:03;;;;;;;20.30;6.80;;;;;;;-6.13;100.00;100812.41;105769;1251;72541;-55
2023/12/14 02:38:30;;;;;;;15.20;6.70;;;;;;;-6.14;100.00;100811.45;105968;1249;60523;-55
2023/12/14 02:40:57;;;;;;;21.70;7.10;;;;;;;-6.13;100.00;100809.90;105916;1253;60324;-55
2023/12/14 02:43:24;;;;;;;20.50;9.10;;;;;;;-6.13;100.00;100810.54;106138;1251;73700;-54
2023/12/14 02:45:51;;;;;;;19.20;6.80;;;;;;;-6.13;100.00;100813.79;106176;1250;66973;-54
2023/12/14 02:48:18;;;;;;;25.60;7.70;;;;;;;-6.12;100.00;100813.90;105888;1254;72683;-55
2023/12/14 02:50:45;;;;;;;23.80;8.70;;;;;;;-6.12;100.00;100815.42;106021;1253;60393;-54
2023/12/14 02:53:12;;;;;;;28.50;7.40;;;;;;;-6.12;100.00;100819.13;106421;1250;60517;-61
2023/12/14 02:55:39;;;;;;;28.70;8.70;;;;;;;-6.09;100.00;100815.15;105883;1251;72204;-54
2023/12/14 02:58:06;;;;;;;21.70;6.80;;;;;;;-6.10;100.00;100809.60;105743;1251;67295;-55
2023/12/14 03:00:33;;;;;;;17.60;6.70;;;;;;;-6.08;100.00;100806.82;105934;1251;73421;-54
2023/12/14 03:03:00;;;;;;;22.60;8.30;;;;;;;-6.07;100.00;100800.20;105908;1253;60479;-54
2023/12/14 03:05:27;;;;;;;18.80;7.40;;;;;;;-6.07;100.00;100789.52;106149;1253;60497;-55
2023/12/14 03:07:54;;;;;;;23.30;7.60;;;;;;;-6.08;100.00;100784.98;106232;1253;73817;-56
2023/12/14 03:10:22;;;;;;;17.40;7.30;;;;;;;-6.04;100.00;100789.41;106082;1250;66908;-54
2023/12/14 03:12:49;;;;;;;16.80;8.10;;;;;;;-6.03;100.00;100782.09;106007;1251;74427;-55
2023/12/14 03:15:17;;;;;;;23.40;9.20;;;;;;;-6.04;100.00;100782.77;106247;1251;60348;-58
2023/12/14 03:17:44;;;;;;;21.20;7.70;;;;;;;-6.02;100.00;100783.21;106006;1253;60425;-54
2023/12/14 03:20:14;;;;;;;19.80;7.40;;;;;;;-5.99;100.00;100779.55;106109;1253;73916;-55
2023/12/14 03:22:41;;;;;;;20.10;7.50;;;;;;;-5.99;100.00;100778.52;105910;1251;67219;-54
2023/12/14 03:25:09;;;;;;;19.10;8.30;;;;;;;-5.98;100.00;100779.86;106152;1251;415219;-61
2023/12/14 03:27:36;;;;;;;20.00;7.30;;;;;;;-5.99;100.00;100778.35;105765;1251;62566;-54
2023/12/14 03:30:07;;;;;;;27.00;7.40;;;;;;;-5.99;100.00;100769.41;106031;1251;60424;-55
2023/12/14 03:32:34;;;;;;;;;;;;;;;-6.01;100.00;100770.17;106006;1250;72553;-55
2023/12/14 03:35:02;;;;;;;19.80;6.90;;;;;;;-6.01;100.00;100773.39;105770;1251;66367;-54
2023/12/14 03:37:30;;;;;;;22.90;7.90;;;;;;;-5.98;100.00;100770.71;106186;1249;71800;-55
2023/12/14 03:39:57;;;;;;;22.50;8.50;;;;;;;-5.97;100.00;100775.59;106414;1252;60335;-55
2023/12/14 03:42:24;;;;;;;24.10;8.50;;;;;;;-5.96;100.00;100772.79;106127;1253;60414;-55
2023/12/14 03:44:51;;;;;;;28.30;9.10;;;;;;;-5.97;100.00;100771.00;105906;1251;73740;-62
2023/12/14 03:47:18;;;;;;;19.50;7.40;;;;;;;-5.98;100.00;100766.94;106022;1251;66912;-56
2023/12/14 03:49:45;;;;;;;18.40;6.40;;;;;;;-5.95;100.00;100768.20;106335;1250;72362;-55
2023/12/14 03:52:12;;;;;;;22.30;8.50;;;;;;;-5.94;100.00;100770.36;106139;1251;60335;-56
2023/12/14 03:54:39;;;;;;;18.80;7.60;;;;;;;-5.94;100.00;100775.42;105894;1253;60573;-54
2023/12/14 03:57:06;;;;;;;30.00;9.40;;;;;;;-5.93;100.00;100775.19;105854;1250;73675;-54
2023/12/14 03:59:33;;;;;;;18.30;6.70;;;;;;;-5.92;100.00;100785.27;105811;1250;67343;-54
2023/12/14 04:02:00;;;;;;;24.80;8.70;;;;;;;-5.91;100.00;100789.52;106230;1253;71112;-56
2023/12/14 04:04:27;;;;;;;17.60;6.40;;;;;;;-5.90;100.00;100783.53;106249;1250;60329;-54
2023/12/14 04:06:54;;;;;;;25.20;9.30;;;;;;;-5.90;100.00;100788.95;106201;1250;60549;-59
2023/12/14 04:09:21;;;;;;;25.60;10.50;;;;;;;-5.89;100.00;100786.34;105870;1253;73386;-54
2023/12/14 04:11:48;;;;;;;19.10;7.20;;;;;;;-5.89;100.00;100783.30;105867;1253;65927;-54
2023/12/14 04:14:15;;;;;;;26.90;9.00;;;;;;;-5.86;100.00;100776.77;106002;1252;71335;-55
2023/12/14 04:16:43;;;;;;;21.50;7.40;;;;;;;-5.86;100.00;100776.94;106301;1253;60440;-62
2023/12/14 04:19:10;;;;;;;20.60;8.00;;;;;;;-5.86;100.00;100781.81;105919;1253;60491;-55
2023/12/14 04:21:37;;;;;;;22.20;8.10;;;;;;;-5.86;100.00;100774.23;105919;1251;72420;-54
2023/12/14 04:24:05;;;;;;;26.90;7.90;;;;;;;-5.86;100.00;100766.78;105876;1251;66931;-55
2023/12/14 04:26:31;;;;;;;17.90;6.80;;;;;;;-5.85;100.00;100770.62;106646;1251;72661;-55
2023/12/14 04:28:58;;;;;;;23.50;7.70;;;;;;;-5.84;100.00;100760.07;106049;1250;60454;-54
2023/12/14 04:31:25;;;;;;;26.40;8.60;;;;;;;-5.83;100.00;100759.17;105953;1251;60433;-55
2023/12/14 04:33:52;;;;;;;27.20;7.50;;;;;;;-5.82;100.00;100758.13;105914;1253;72625;-55
2023/12/14 04:36:19;;;;;;;25.20;7.60;;;;;;;-5.80;100.00;100766.19;105954;1251;67335;-55
2023/12/14 04:38:46;;;;;;;18.50;8.50;;;;;;;-5.80;100.00;100785.30;106261;1252;72687;-58
2023/12/14 04:41:14;;;;;;;28.20;9.10;;;;;;;-5.81;100.00;100786.53;105803;1253;60348;-55
2023/12/14 04:43:41;;;;;;;21.50;8.20;;;;;;;-5.81;100.00;100781.44;105884;1251;60539;-55
2023/12/14 04:46:08;;;;;;;36.10;9.50;;;;;;;-5.81;100.00;100781.77;105943;1250;72673;-55
2023/12/14 04:48:35;;;;;;;27.00;9.30;;;;;;;-5.77;100.00;100782.15;106404;1253;65727;-62
2023/12/14 04:51:02;;;;;;;23.10;8.40;;;;;;;-5.76;100.00;100779.04;105742;1251;73422;-56
2023/12/14 04:53:29;;;;;;;24.30;8.20;;;;;;;-5.72;100.00;100767.17;105997;1253;60367;-55
2023/12/14 04:55:56;;;;;;;26.60;9.70;;;;;;;-5.70;100.00;100758.62;106112;1256;60373;-55
2023/12/14 04:58:23;;;;;;;24.70;9.70;;;;;;;-5.69;100.00;100754.33;106239;1252;72703;-55
2023/12/14 05:00:51;;;;;;;20.90;9.10;;;;;;;-5.67;100.00;100753.91;106341;1253;67261;-63
2023/12/14 05:03:18;;;;;;;28.80;8.50;;;;;;;-5.66;100.00;100761.45;105757;1253;71200;-54
2023/12/14 05:05:45;;;;;;;23.00;9.90;;;;;;;-5.63;100.00;100757.47;105883;1251;60430;-56
2023/12/14 05:08:12;;;;;;;22.70;8.20;;;;;;;-5.62;100.00;100750.83;105965;1253;60403;-56
2023/12/14 05:10:39;;;;;;;21.00;8.30;;;;;;;-5.60;100.00;100759.38;106109;1253;72902;-56
2023/12/14 05:13:06;;;;;;;22.60;8.10;;;;;;;-5.58;100.00;100764.54;106149;1254;65641;-63
2023/12/14 05:15:33;;;;;;;27.60;10.00;;;;;;;-5.56;100.00;100760.23;105945;1250;71564;-56
2023/12/14 05:18:00;;;;;;;21.50;6.70;;;;;;;-5.54;100.00;100766.74;106347;1253;60632;-56
2023/12/14 05:20:27;;;;;;;17.60;9.00;;;;;;;-5.54;100.00;100767.40;106164;1250;60376;-55
2023/12/14 05:22:55;;;;;;;54.10;19.00;;;;;;;-5.53;100.00;100771.08;106225;1251;72531;-57
2023/12/14 05:25:22;;;;;;;31.30;12.40;;;;;;;-5.51;100.00;100778.42;106172;1253;67200;-56
2023/12/14 05:27:49;;;;;;;30.30;10.80;;;;;;;-5.49;100.00;100783.95;106473;1250;71465;-56
2023/12/14 05:30:16;;;;;;;29.60;9.70;;;;;;;-5.49;100.00;100788.17;106225;1253;60318;-57
2023/12/14 05:32:43;;;;;;;17.10;7.70;;;;;;;-5.48;100.00;100787.80;106001;1253;60483;-56
2023/12/14 05:35:11;;;;;;;29.00;9.10;;;;;;;-5.47;100.00;100777.94;106038;1253;73872;-56
2023/12/14 05:37:38;;;;;;;28.10;8.50;;;;;;;-5.46;100.00;100770.75;106232;1250;65737;-55
2023/12/14 05:40:07;;;;;;;27.70;9.70;;;;;;;-5.44;100.00;100774.75;105863;1253;72415;-56
2023/12/14 05:42:34;;;;;;;22.50;8.80;;;;;;;-5.42;100.00;100778.55;106026;1254;60487;-57
2023/12/14 05:45:01;;;;;;;31.60;11.40;;;;;;;-5.43;100.00;100771.98;106161;1251;60440;-55
2023/12/14 05:47:30;;;;;;;29.60;10.60;;;;;;;-5.41;100.00;100760.41;106203;1251;72526;-62
2023/12/14 05:49:57;;;;;;;28.60;11.80;;;;;;;-5.36;100.00;100754.11;105773;1253;65755;-55
2023/12/14 05:52:24;;;;;;;27.90;9.70;;;;;;;-5.37;100.00;100756.17;106340;1251;72772;-57
2023/12/14 05:54:50;;;;;;;37.40;10.30;;;;;;;-5.36;100.00;100752.70;106318;1250;61898;-54
2023/12/14 05:57:17;;;;;;;26.70;9.70;;;;;;;-5.35;100.00;100756.23;105943;1252;60555;-57
2023/12/14 05:59:44;;;;;;;25.80;9.60;;;;;;;-5.34;100.00;100757.36;106073;1253;73458;-55
2023/12/14 06:02:11;;;;;;;26.20;8.60;;;;;;;-5.31;100.00;100752.48;106645;1253;66892;-57
2023/12/14 06:04:38;;;;;;;21.00;8.20;;;;;;;-5.28;100.00;100735.08;106063;1251;71123;-56
2023/12/14 06:07:08;;;;;;;23.20;10.20;;;;;;;-5.28;100.00;100727.60;105933;1253;61350;-56
2023/12/14 06:09:35;;;;;;;34.90;9.40;;;;;;;-5.27;100.00;100715.05;105967;1251;60767;-58
2023/12/14 06:12:02;;;;;;;27.20;8.70;;;;;;;-5.24;100.00;100714.58;106463;1251;74512;-54
2023/12/14 06:14:29;;;;;;;25.60;9.50;;;;;;;-5.22;100.00;100718.89;105915;1250;66592;-54
2023/12/14 06:16:57;;;;;;;26.80;10.70;;;;;;;-5.20;100.00;100725.90;106046;1253;71306;-55
2023/12/14 06:19:24;;;;;;;26.70;8.30;;;;;;;-5.17;100.00;100732.70;106072;1253;60524;-55
2023/12/14 06:21:52;;;;;;;36.50;10.30;;;;;;;-5.12;100.00;100727.77;106211;1249;60431;-59
2023/12/14 06:24:20;;;;;;;24.80;9.20;;;;;;;-5.12;100.00;100722.32;106251;1253;73743;-57
2023/12/14 06:26:47;;;;;;;26.30;8.90;;;;;;;-5.14;100.00;100715.77;105957;1252;66923;-57
2023/12/14 06:29:14;;;;;;;28.80;10.00;;;;;;;-5.09;100.00;100706.75;105850;1252;73053;-56
2023/12/14 06:31:41;;;;;;;34.30;9.30;;;;;;;-5.07;100.00;100699.04;106058;1250;60837;-54
2023/12/14 06:34:08;;;;;;;25.90;9.80;;;;;;;-5.04;100.00;100705.00;105931;1251;60459;-54
2023/12/14 06:36:36;;;;;;;23.90;9.30;;;;;;;-5.03;100.00;100706.66;105962;1251;72421;-54
2023/12/14 06:39:03;;;;;;;31.10;11.70;;;;;;;-4.99;100.00;100704.08;106060;1250;67219;-58
2023/12/14 06:41:30;;;;;;;32.70;10.40;;;;;;;-4.94;100.00;100703.98;106379;1253;72724;-56
2023/12/14 06:43:57;;;;;;;25.50;8.70;;;;;;;-4.90;100.00;100707.52;105998;1253;63141;-55
2023/12/14 06:46:24;;;;;;;25.60;11.10;;;;;;;-4.85;100.00;100717.14;106174;1251;60385;-55
2023/12/14 06:48:51;;;;;;;29.90;9.20;;;;;;;-4.83;100.00;100720.59;106497;1251;73842;-54
2023/12/14 06:51:18;;;;;;;32.10;9.20;;;;;;;-4.79;100.00;100721.92;106105;1253;67186;-55
2023/12/14 06:53:47;;;;;;;20.40;9.40;;;;;;;-4.76;100.00;100722.77;106541;1251;71895;-61
2023/12/14 06:56:14;;;;;;;29.20;9.90;;;;;;;-4.74;100.00;100723.20;106171;1251;61566;-54
2023/12/14 06:58:43;;;;;;;24.90;9.40;;;;;;;-4.72;100.00;100730.73;105998;1249;60526;-59
2023/12/14 07:01:14;;;;;;;24.20;10.40;;;;;;;-4.67;100.00;100736.96;106049;1252;72749;-56
2023/12/14 07:03:43;;;;;;;34.70;11.40;;;;;;;-4.63;100.00;100734.05;106197;1253;67314;-58
2023/12/14 07:06:14;;;;;;;27.20;9.60;;;;;;;-4.58;100.00;100729.56;106261;1251;71382;-56
2023/12/14 07:08:42;;;;;;;27.10;10.70;;;;;;;-4.53;100.00;100727.32;105997;1253;60974;-58
2023/12/14 07:11:09;;;;;;;29.10;12.00;;;;;;;-4.51;100.00;100729.56;105995;1253;60399;-55
2023/12/14 07:13:37;;;;;;;27.80;10.80;;;;;;;-4.45;100.00;100729.25;106483;1253;72950;-62
2023/12/14 07:16:05;;;;;;;24.40;10.40;;;;;;;-4.41;100.00;100721.11;105894;1252;67696;-56
2023/12/14 07:18:32;;;;;;;23.70;10.40;;;;;;;-4.37;100.00;100716.32;106264;1251;72770;-56
2023/12/14 07:21:00;;;;;;;37.20;12.30;;;;;;;-4.31;100.00;100712.63;105953;1251;60533;-55
2023/12/14 07:23:27;;;;;;;25.80;11.20;;;;;;;-4.25;100.00;100712.81;105930;1249;60680;-56
2023/12/14 07:25:55;;;;;;;30.30;12.80;;;;;;;-4.20;100.00;100708.65;105941;1250;74050;-55
2023/12/14 07:28:23;;;;;;;25.60;12.10;;;;;;;-4.17;100.00;100711.91;106168;1253;65054;-55
2023/12/14 07:30:50;;;;;;;32.80;13.20;;;;;;;-4.15;100.00;100711.99;106169;1253;71275;-55
2023/12/14 07:33:17;;;;;;;25.80;10.90;;;;;;;-4.10;100.00;100706.34;106011;1253;61055;-56
2023/12/14 07:35:44;;;;;;;22.60;10.20;;;;;;;-4.06;100.00;100710.52;106433;1251;60532;-62
2023/12/14 07:38:12;;;;;;;23.70;9.90;;;;;;;-4.02;100.00;100719.84;106227;1253;73037;-56
2023/12/14 07:40:40;;;;;;;32.40;10.90;;;;;;;-4.01;100.00;100718.09;106278;1251;67166;-55
2023/12/14 07:43:07;;;;;;;24.30;9.50;;;;;;;-4.00;100.00;100720.58;105951;1253;72723;-55
2023/12/14 07:45:34;;;;;;;21.90;9.70;;;;;;;-3.99;100.00;100725.80;105990;1251;60463;-58
2023/12/14 07:48:01;;;;;;;28.30;9.90;;;;;;;-3.98;100.00;100724.55;106337;1249;60543;-61
2023/12/14 07:50:28;;;;;;;23.50;8.80;;;;;;;-3.96;100.00;100721.20;105739;1253;74113;-55
2023/12/14 07:52:56;;;;;;;21.50;10.60;;;;;;;-3.94;100.00;100719.05;105851;1252;67300;-56
2023/12/14 07:55:23;;;;;;;20.20;9.50;;;;;;;-3.90;100.00;100711.06;105988;1249;71785;-55
2023/12/14 07:57:50;;;;;;;26.30;10.60;;;;;;;-3.87;100.00;100709.36;105894;1251;60390;-55
2023/12/14 08:00:18;;;;;;;21.10;9.50;;;;;;;-3.83;100.00;100704.92;106171;1253;60447;-56
2023/12/14 08:02:45;;;;;;;20.40;8.20;;;;;;;-3.80;100.00;100702.18;105923;1253;73768;-55
2023/12/14 08:05:12;;;;;;;21.60;9.30;;;;;;;-3.71;100.00;100705.98;105997;1253;68271;-55
2023/12/14 08:07:39;;;;;;;31.00;10.50;;;;;;;-3.67;100.00;100700.35;105863;1252;72554;-56
2023/12/14 08:10:06;;;;;;;22.20;10.10;;;;;;;-3.62;100.00;100696.20;106280;1251;60433;-62
2023/12/14 08:12:33;;;;;;;26.70;10.80;;;;;;;-3.58;100.00;100687.15;106182;1254;60424;-56
2023/12/14 08:15:00;;;;;;;24.30;8.80;;;;;;;-3.56;100.00;100678.03;106115;1253;73773;-56
2023/12/14 08:17:28;;;;;;;22.40;10.70;;;;;;;-3.51;100.00;100678.77;105926;1253;66009;-57
2023/12/14 08:19:55;;;;;;;22.00;9.10;;;;;;;-3.52;100.00;100667.76;106044;1251;72578;-55
2023/12/14 08:22:22;;;;;;;26.30;12.10;;;;;;;-3.46;100.00;100663.05;105853;1251;60444;-62
2023/12/14 08:24:49;;;;;;;22.50;11.20;;;;;;;-3.44;100.00;100667.63;105987;1250;60869;-55
2023/12/14 08:27:16;;;;;;;28.70;14.80;;;;;;;-3.39;100.00;100669.13;106077;1251;72526;-54
2023/12/14 08:29:45;;;;;;;35.40;12.80;;;;;;;-3.37;100.00;100674.25;105964;1253;67263;-55
2023/12/14 08:32:12;;;;;;;24.30;13.00;;;;;;;-3.35;100.00;100679.45;106172;1251;73837;-56
2023/12/14 08:34:40;;;;;;;35.80;19.50;;;;;;;-3.32;100.00;100675.02;105918;1250;60457;-55
2023/12/14 08:37:07;;;;;;;39.60;18.50;;;;;;;-3.28;100.00;100672.23;106013;1253;61717;-55
2023/12/14 08:39:35;;;;;;;29.90;13.10;;;;;;;-3.24;100.00;100670.48;105951;1251;74322;-55
2023/12/14 08:42:02;;;;;;;23.80;10.50;;;;;;;-3.20;100.00;100668.05;106072;1251;67162;-55
2023/12/14 08:44:29;;;;;;;21.40;11.30;;;;;;;-3.15;100.00;100668.97;106174;1254;71175;-55
2023/12/14 08:46:56;;;;;;;22.10;10.70;;;;;;;-3.11;100.00;100675.94;105978;1254;60461;-56
2023/12/14 08:49:23;;;;;;;23.00;11.60;;;;;;;-3.07;100.00;100678.92;106030;1251;60283;-54
2023/12/14 08:51:50;;;;;;;31.00;14.60;;;;;;;-3.04;100.00;100676.86;106011;1253;73531;-54
2023/12/14 08:54:17;;;;;;;26.00;13.40;;;;;;;-2.96;100.00;100669.10;105913;1253;67236;-55
2023/12/14 08:56:45;;;;;;;43.10;18.10;;;;;;;-2.93;100.00;100658.91;106034;1253;74049;-55
2023/12/14 08:59:12;;;;;;;39.50;19.20;;;;;;;-2.90;100.00;100655.53;106020;1253;60490;-56
2023/12/14 09:01:39;;;;;;;39.40;20.20;;;;;;;-2.88;100.00;100656.77;105950;1251;60434;-54
2023/12/14 09:04:07;;;;;;;45.80;25.40;;;;;;;-2.84;100.00;100653.29;106030;1251;74462;-55
2023/12/14 09:06:34;;;;;;;39.70;18.40;;;;;;;-2.81;100.00;100652.61;106139;1253;68606;-58
2023/12/14 09:09:02;;;;;;;43.70;20.90;;;;;;;-2.76;100.00;100655.90;105971;1251;74274;-55
2023/12/14 09:11:29;;;;;;;29.20;16.30;;;;;;;-2.69;100.00;100648.19;106089;1254;61340;-55
2023/12/14 09:13:57;;;;;;;31.10;15.10;;;;;;;-2.61;100.00;100633.63;106141;1251;61658;-54
2023/12/14 09:16:24;;;;;;;35.70;17.20;;;;;;;-2.52;100.00;100629.17;105854;1253;75360;-58
2023/12/14 09:18:52;;;;;;;30.40;15.60;;;;;;;-2.46;100.00;100623.52;106091;1253;66625;-60
2023/12/14 09:21:19;;;;;;;29.30;12.50;;;;;;;-2.37;100.00;100623.52;106167;1251;73929;-57
2023/12/14 09:23:49;;;;;;;23.80;12.10;;;;;;;-2.30;100.00;100623.95;105901;1254;60552;-56
2023/12/14 09:26:16;;;;;;;24.10;12.60;;;;;;;-2.26;100.00;100618.20;106126;1250;61686;-57
2023/12/14 09:28:43;;;;;;;31.10;12.00;;;;;;;-2.18;100.00;100617.45;106172;1251;73038;-56
2023/12/14 09:31:10;;;;;;;28.40;11.00;;;;;;;-2.14;100.00;100617.56;105706;1254;66104;-56
2023/12/14 09:33:38;;;;;;;21.90;11.30;;;;;;;-2.11;100.00;100617.73;105910;1254;72720;-57
2023/12/14 09:36:06;;;;;;;25.80;12.50;;;;;;;-2.09;100.00;100620.12;106125;1251;62484;-57
2023/12/14 09:38:33;;;;;;;27.00;12.90;;;;;;;-2.06;100.00;100613.80;106341;1253;61146;-60
2023/12/14 09:40:59;;;;;;;27.50;12.30;;;;;;;-2.06;100.00;100618.45;105655;1251;72652;-55
2023/12/14 09:43:27;;;;;;;29.10;13.30;;;;;;;-2.05;100.00;100620.39;105968;1253;68837;-55
2023/12/14 09:46:02;;;;;;;29.00;12.80;;;;;;;-2.03;100.00;100617.04;106004;1251;73283;-55
2023/12/14 09:48:29;;;;;;;26.10;12.00;;;;;;;-2.03;100.00;100618.53;105700;1254;62949;-55
2023/12/14 09:50:57;;;;;;;18.00;9.40;;;;;;;-2.00;100.00;100613.62;105952;1257;60427;-55
2023/12/14 09:53:24;;;;;;;23.00;12.70;;;;;;;-1.97;100.00;100616.16;105834;1256;72423;-55
2023/12/14 09:55:51;;;;;;;28.90;14.70;;;;;;;-1.92;100.00;100624.89;106022;1254;66484;-56
2023/12/14 09:58:18;;;;;;;24.80;14.40;;;;;;;-1.89;100.00;100629.81;106133;1256;73396;-54
2023/12/14 10:00:45;;;;;;;33.50;15.50;;;;;;;-1.86;100.00;100628.45;106106;1254;60542;-61
2023/12/14 10:03:26;;;;;;;23.10;11.90;;;;;;;-1.84;100.00;100625.56;105909;1253;60511;-55
2023/12/14 10:05:54;;;;;;;19.70;11.80;;;;;;;-1.79;100.00;100616.24;106086;1251;72437;-55
2023/12/14 10:08:22;;;;;;;23.10;13.50;;;;;;;-1.75;100.00;100611.55;106286;1253;68622;-55
2023/12/14 10:10:52;;;;;;;35.50;17.70;;;;;;;-1.71;100.00;100607.60;105931;1253;74205;-54
2023/12/14 10:13:21;;;;;;;30.70;15.40;;;;;;;-1.66;100.00;100605.05;105812;1251;62647;-55
2023/12/14 10:15:48;;;;;;;32.50;15.00;;;;;;;-1.62;100.00;100592.88;105822;1256;60361;-57
2023/12/14 10:18:24;;;;;;;17.90;9.50;;;;;;;-1.56;100.00;100596.59;106165;1253;72882;-58
2023/12/14 10:20:53;;;;;;;18.40;9.60;;;;;;;-1.51;100.00;100591.32;106206;1250;67712;-54
2023/12/14 10:23:20;;;;;;;21.30;12.40;;;;;;;-1.48;100.00;100587.34;106000;1254;74063;-55
2023/12/14 10:25:48;;;;;;;14.50;9.10;;;;;;;-1.43;100.00;100585.67;106067;1261;60494;-57
2023/12/14 10:28:15;;;;;;;12.90;7.40;;;;;;;-1.40;100.00;100574.77;106250;1253;60983;-61
2023/12/14 10:30:42;;;;;;;18.50;9.40;;;;;;;-1.37;100.00;100568.08;105804;1251;75462;-55
2023/12/14 10:33:09;;;;;;;23.60;10.90;;;;;;;-1.33;100.00;100562.20;105934;1254;66251;-55
2023/12/14 10:35:37;;;;;;;18.40;9.20;;;;;;;-1.29;100.00;100563.98;105906;1253;74144;-55
2023/12/14 10:38:05;;;;;;;16.80;7.50;;;;;;;-1.25;100.00;100559.96;106019;1256;60511;-55
2023/12/14 10:40:32;;;;;;;17.00;7.40;;;;;;;-1.22;100.00;100558.23;106002;1257;61006;-55
2023/12/14 10:42:59;;;;;;;12.60;6.70;;;;;;;-1.19;100.00;100556.34;105721;1255;73590;-55
2023/12/14 10:45:32;;;;;;;12.40;5.80;;;;;;;-1.16;100.00;100553.78;105960;1254;67598;-56
2023/12/14 10:48:00;;;;;;;16.00;6.30;;;;;;;-1.16;100.00;100549.36;106073;1253;74036;-56
2023/12/14 10:50:28;;;;;;;11.80;4.80;;;;;;;-1.13;100.00;100562.59;106125;1251;61650;-55
2023/12/14 10:52:56;;;;;;;12.70;5.40;;;;;;;-1.09;100.00;100567.31;105860;1253;60320;-55
2023/12/14 10:55:53;;;;;;;12.00;5.00;;;;;;;-1.04;100.00;100564.61;106028;1254;75653;-58
2023/12/14 10:58:20;;;;;;;13.00;4.60;;;;;;;-1.02;100.00;100567.52;106211;1256;67715;-55
2023/12/14 11:01:03;;;;;;;14.50;5.80;;;;;;;-0.99;100.00;100552.79;106006;1257;74129;-57